• Join FlightAware (Why Join?)
  • Login
  • US Flag 
07:21PM EST


 

Airport Tracker/Info


-or-


 

Live Flight TrackerFlight Track Log ✈ N9003S ✈ 19-Aug-2013 ✈ KHTO - KHPN

Flight Track Log - Related Links

Times and Time Zones

All times are in EDT time to prevent confusion due to time zone crossing. See the N9003S flight status page for this flight to view local times or setup timezone preferences in your user account.

Time Position Orientation Groundspeed Altitude Reporting Facility
EDT Latitude Longitude Course Direction KTS MPH feet Rate Location/Type
05:06PM 40.9833 -72.3667 294° West 151 174 3,000  Level New York TRACON
05:07PM 41.0000 -72.4167 294° West 152 175 3,000 300 Level New York TRACON
05:08PM 41.0333 -72.4500 323° Northwest 145 167 3,700 660 Climbing New York TRACON
05:09PM 41.0500 -72.4833 304° West 133 153 4,400 900 Climbing New York TRACON
05:10PM 41.0500 -72.5333 270° West 113 130 5,500 780 Climbing New York TRACON
05:11PM 41.0667 -72.5833 294° West 132 152 6,000 240 Climbing New York TRACON
05:12PM 41.0667 -72.6333 270° West 163 188 6,000  Level New York TRACON
05:13PM 41.0833 -72.7000 288° West 168 193 6,000  Level New York TRACON
05:14PM 41.0833 -72.7500 270° West 166 191 6,000  Level New York TRACON
05:15PM 41.1000 -72.8167 288° West 164 189 6,000  Level New York TRACON
05:16PM 41.1167 -72.8667 294° West 169 194 6,000  Level New York TRACON
05:17PM 41.1167 -72.9333 270° West 166 191 6,000 -420 Level New York TRACON
05:18PM 41.1333 -73.0000 288° West 176 203 5,200 -540 Descending New York TRACON
05:19PM 41.1500 -73.0500 294° West 167 192 5,000 -120 Descending New York TRACON
05:20PM 41.1500 -73.1167 270° West 160 184 5,000  Level New York TRACON
05:21PM 41.1667 -73.1667 294° West 159 183 5,000  Level New York TRACON
05:22PM 41.1667 -73.2167 270° West 160 184 5,000 -60 Level New York TRACON
05:23PM 41.1667 -73.2833 270° West 157 181 4,900 -540 Descending New York TRACON
05:24PM 41.1833 -73.3500 288° West 175 201 4,000 -780 Descending New York TRACON
05:25PM 41.1833 -73.4000 270° West 165 190 3,500 -600 Descending New York TRACON
05:26PM 41.1500 -73.4500 228° Southwest 156 180 2,900 -480 Descending New York TRACON
05:27PM 41.1167 -73.4833 217° Southwest 150 173 2,600 -480 Descending New York TRACON
05:28PM 41.0833 -73.5167 217° Southwest 160 184 2,000 -300 Descending New York TRACON
05:29PM 41.0500 -73.5333 201° Southwest 149 171 2,000  Level New York TRACON
05:30PM 41.0167 -73.5667 217° Southwest 145 167 2,000  Level New York TRACON
05:31PM 40.9833 -73.6000 217° Southwest 146 168 2,000 -60 Level New York TRACON
05:32PM 40.9833 -73.6333 270° West 132 152 1,900 -240 Descending New York TRACON
05:33PM 41.0167 -73.6667 323° Northwest 110 127 1,500 -480 Descending New York TRACON
05:34PM 41.0333 -73.6833 323° Northwest 104 120 1,000 -540 Descending New York TRACON
05:36PM 41.0667 -73.7000 318° Northwest  Level FlightAware Approximate
05:43PM 41.0669 -73.7076 318° Northwest  Level Estimated